Terminal Aerodrome Forecast
Issued by NWS Upton, NY

Home | Current Version | Previous Version | Text Only | Print | Product List | Glossary On
Versions: 1 2 3 4 5 6 7 8 9 10 11 12 13 14 15 16 17 18 19 20 21 22 23 24 25 26 27 28 29 30 31 32 33 34 35 36 37
000
FTUS41 KOKX 020231 AAB
TAFJFK
TAF AMD
KJFK 020231Z 0203/0306 28010KT P6SM SCT050 SCT250
     FM020500 VRB04KT P6SM SCT050 BKN250
     FM021000 35005KT P6SM SCT050 SCT150 BKN250
     FM021600 18010KT P6SM BKN150
     FM030200 VRB02KT P6SM SCT150 BKN250=

USA.gov is the U.S. government's official web portal to all federal, state and local government web resources and services.